< < Back
Terminal Aerodrome Forecast


Current Version              Previous Versions:   1  2  3  4  5  6  7  8  9  

Terminal Aerodrome Forecast

521
FTUS42 KJAX 061358 AAA
TAFSSI
TAF AMD
KSSI 061358Z 0614/0712 03015G24KT P6SM OVC010
     FM062000 02011G18KT P6SM OVC012
     FM070000 02008KT P6SM SCT020 BKN250=

Latest METAR

980
SAUS70 KWBC 061400 RRK
MTRSSI
METAR KSSI 061353Z AUTO 04014KT 10SM OVC010 08/06 A3034 RMK AO2 SLP272
T00780056


USA.gov is the U.S. government's official web portal to all federal, state and local government web resources and services.